sensor_id;sensor_type;location;lat;lon;timestamp;P1;durP1;ratioP1;P2;durP2;ratioP2
55776;SDS011;54079;44.540;18.784;2023-05-10T00:01:09;1.58;;;1.15;;
55776;SDS011;54079;44.540;18.784;2023-05-10T00:03:35;1.08;;;0.90;;
55776;SDS011;54079;44.540;18.784;2023-05-10T00:06:01;0.88;;;0.88;;
55776;SDS011;54079;44.540;18.784;2023-05-10T00:08:27;2.03;;;1.33;;
55776;SDS011;54079;44.540;18.784;2023-05-10T00:10:53;2.45;;;1.58;;
55776;SDS011;54079;44.540;18.784;2023-05-10T00:13:19;1.67;;;1.33;;
55776;SDS011;54079;44.540;18.784;2023-05-10T00:15:44;1.52;;;1.42;;
55776;SDS011;54079;44.540;18.784;2023-05-10T00:18:10;1.83;;;1.25;;
55776;SDS011;54079;44.540;18.784;2023-05-10T00:20:36;2.78;;;1.80;;
55776;SDS011;54079;44.540;18.784;2023-05-10T00:23:02;2.80;;;1.30;;
55776;SDS011;54079;44.540;18.784;2023-05-10T00:25:28;1.73;;;1.38;;
55776;SDS011;54079;44.540;18.784;2023-05-10T00:27:54;1.55;;;1.30;;
55776;SDS011;54079;44.540;18.784;2023-05-10T00:30:22;2.30;;;1.67;;
55776;SDS011;54079;44.540;18.784;2023-05-10T00:32:48;1.13;;;1.00;;
55776;SDS011;54079;44.540;18.784;2023-05-10T00:35:15;2.03;;;1.20;;
55776;SDS011;54079;44.540;18.784;2023-05-10T00:37:41;2.00;;;1.00;;
55776;SDS011;54079;44.540;18.784;2023-05-10T00:40:07;1.52;;;1.20;;
55776;SDS011;54079;44.540;18.784;2023-05-10T00:42:33;0.98;;;0.90;;
55776;SDS011;54079;44.540;18.784;2023-05-10T00:44:59;1.92;;;1.27;;
55776;SDS011;54079;44.540;18.784;2023-05-10T00:47:25;1.40;;;1.00;;
55776;SDS011;54079;44.540;18.784;2023-05-10T00:49:51;1.92;;;1.30;;
55776;SDS011;54079;44.540;18.784;2023-05-10T00:52:17;2.22;;;1.20;;
55776;SDS011;54079;44.540;18.784;2023-05-10T00:54:43;1.70;;;1.50;;
55776;SDS011;54079;44.540;18.784;2023-05-10T00:57:09;1.52;;;1.38;;
55776;SDS011;54079;44.540;18.784;2023-05-10T00:59:36;1.60;;;1.17;;
55776;SDS011;54079;44.540;18.784;2023-05-10T01:02:02;1.38;;;1.00;;
55776;SDS011;54079;44.540;18.784;2023-05-10T01:04:28;1.50;;;1.00;;
55776;SDS011;54079;44.540;18.784;2023-05-10T01:06:55;2.97;;;1.27;;
55776;SDS011;54079;44.540;18.784;2023-05-10T01:09:21;1.23;;;1.02;;
55776;SDS011;54079;44.540;18.784;2023-05-10T01:11:48;1.65;;;0.98;;
55776;SDS011;54079;44.540;18.784;2023-05-10T01:14:14;3.65;;;1.35;;
55776;SDS011;54079;44.540;18.784;2023-05-10T01:16:43;1.02;;;0.80;;
55776;SDS011;54079;44.540;18.784;2023-05-10T01:19:22;1.67;;;1.00;;
55776;SDS011;54079;44.540;18.784;2023-05-10T01:33:06;1.33;;;0.98;;
55776;SDS011;54079;44.540;18.784;2023-05-10T01:44:06;1.98;;;0.93;;
55776;SDS011;54079;44.540;18.784;2023-05-10T01:46:31;4.68;;;1.25;;
55776;SDS011;54079;44.540;18.784;2023-05-10T01:49:01;1.17;;;1.00;;
55776;SDS011;54079;44.540;18.784;2023-05-10T01:51:31;1.15;;;0.98;;
55776;SDS011;54079;44.540;18.784;2023-05-10T01:54:04;2.58;;;1.38;;
55776;SDS011;54079;44.540;18.784;2023-05-10T01:56:33;0.95;;;0.68;;
55776;SDS011;54079;44.540;18.784;2023-05-10T01:59:01;0.77;;;0.57;;
55776;SDS011;54079;44.540;18.784;2023-05-10T02:01:41;0.95;;;0.70;;
55776;SDS011;54079;44.540;18.784;2023-05-10T02:04:08;0.75;;;0.65;;
55776;SDS011;54079;44.540;18.784;2023-05-10T02:06:36;0.95;;;0.70;;
55776;SDS011;54079;44.540;18.784;2023-05-10T02:09:04;1.02;;;0.88;;
55776;SDS011;54079;44.540;18.784;2023-05-10T02:11:31;0.75;;;0.75;;
55776;SDS011;54079;44.540;18.784;2023-05-10T02:13:58;3.28;;;1.35;;
55776;SDS011;54079;44.540;18.784;2023-05-10T02:16:26;1.23;;;0.80;;
55776;SDS011;54079;44.540;18.784;2023-05-10T02:18:53;1.17;;;0.73;;
55776;SDS011;54079;44.540;18.784;2023-05-10T02:21:20;1.13;;;1.00;;
55776;SDS011;54079;44.540;18.784;2023-05-10T02:23:48;0.50;;;0.40;;
55776;SDS011;54079;44.540;18.784;2023-05-10T02:26:17;3.10;;;1.20;;
55776;SDS011;54079;44.540;18.784;2023-05-10T02:28:46;1.92;;;1.60;;
55776;SDS011;54079;44.540;18.784;2023-05-10T02:31:14;1.40;;;1.20;;
55776;SDS011;54079;44.540;18.784;2023-05-10T02:33:41;2.65;;;1.52;;
55776;SDS011;54079;44.540;18.784;2023-05-10T02:36:08;2.25;;;1.20;;
55776;SDS011;54079;44.540;18.784;2023-05-10T02:38:35;1.17;;;1.02;;
55776;SDS011;54079;44.540;18.784;2023-05-10T02:41:02;1.30;;;0.93;;
55776;SDS011;54079;44.540;18.784;2023-05-10T02:43:30;1.92;;;1.30;;
55776;SDS011;54079;44.540;18.784;2023-05-10T02:45:58;2.35;;;1.15;;
55776;SDS011;54079;44.540;18.784;2023-05-10T02:48:24;1.10;;;0.95;;
55776;SDS011;54079;44.540;18.784;2023-05-10T02:50:51;1.73;;;1.15;;
55776;SDS011;54079;44.540;18.784;2023-05-10T02:53:22;2.13;;;1.33;;
55776;SDS011;54079;44.540;18.784;2023-05-10T02:55:52;1.35;;;0.85;;
55776;SDS011;54079;44.540;18.784;2023-05-10T02:58:25;1.70;;;1.10;;
55776;SDS011;54079;44.540;18.784;2023-05-10T03:00:51;1.25;;;0.80;;
55776;SDS011;54079;44.540;18.784;2023-05-10T03:03:17;0.80;;;0.60;;
55776;SDS011;54079;44.540;18.784;2023-05-10T03:05:44;1.90;;;0.90;;
55776;SDS011;54079;44.540;18.784;2023-05-10T03:08:10;3.28;;;0.98;;
55776;SDS011;54079;44.540;18.784;2023-05-10T03:10:38;1.67;;;1.00;;
55776;SDS011;54079;44.540;18.784;2023-05-10T03:16:35;1.20;;;0.80;;
55776;SDS011;54079;44.540;18.784;2023-05-10T03:19:48;2.72;;;1.40;;
55776;SDS011;54079;44.540;18.784;2023-05-10T03:22:33;1.60;;;0.80;;
55776;SDS011;54079;44.540;18.784;2023-05-10T03:25:04;1.85;;;1.08;;
55776;SDS011;54079;44.540;18.784;2023-05-10T03:27:33;0.53;;;0.53;;
55776;SDS011;54079;44.540;18.784;2023-05-10T03:30:02;1.45;;;1.23;;
55776;SDS011;54079;44.540;18.784;2023-05-10T03:32:30;1.98;;;0.85;;
55776;SDS011;54079;44.540;18.784;2023-05-10T03:34:57;2.55;;;1.00;;
55776;SDS011;54079;44.540;18.784;2023-05-10T03:37:23;3.00;;;0.90;;
55776;SDS011;54079;44.540;18.784;2023-05-10T03:39:49;0.93;;;0.82;;
55776;SDS011;54079;44.540;18.784;2023-05-10T03:42:15;2.15;;;1.10;;
55776;SDS011;54079;44.540;18.784;2023-05-10T03:44:43;1.60;;;1.23;;
55776;SDS011;54079;44.540;18.784;2023-05-10T03:47:08;1.40;;;0.98;;
55776;SDS011;54079;44.540;18.784;2023-05-10T03:49:34;1.10;;;0.80;;
55776;SDS011;54079;44.540;18.784;2023-05-10T03:52:00;1.27;;;0.90;;
55776;SDS011;54079;44.540;18.784;2023-05-10T03:54:26;1.35;;;0.82;;
55776;SDS011;54079;44.540;18.784;2023-05-10T03:56:52;1.20;;;0.90;;
55776;SDS011;54079;44.540;18.784;2023-05-10T03:59:18;1.20;;;0.75;;
55776;SDS011;54079;44.540;18.784;2023-05-10T04:01:44;1.08;;;0.75;;
55776;SDS011;54079;44.540;18.784;2023-05-10T04:04:10;0.88;;;0.75;;
55776;SDS011;54079;44.540;18.784;2023-05-10T04:06:37;1.65;;;1.17;;
55776;SDS011;54079;44.540;18.784;2023-05-10T04:09:03;0.80;;;0.80;;
55776;SDS011;54079;44.540;18.784;2023-05-10T04:11:29;1.40;;;1.15;;
55776;SDS011;54079;44.540;18.784;2023-05-10T04:13:55;0.98;;;0.88;;
55776;SDS011;54079;44.540;18.784;2023-05-10T04:16:21;0.80;;;0.77;;
55776;SDS011;54079;44.540;18.784;2023-05-10T04:18:47;1.92;;;1.23;;
55776;SDS011;54079;44.540;18.784;2023-05-10T04:21:13;1.15;;;0.82;;
55776;SDS011;54079;44.540;18.784;2023-05-10T04:23:39;1.33;;;0.80;;
55776;SDS011;54079;44.540;18.784;2023-05-10T04:26:06;1.92;;;1.05;;
55776;SDS011;54079;44.540;18.784;2023-05-10T04:28:32;1.13;;;1.02;;
55776;SDS011;54079;44.540;18.784;2023-05-10T04:31:04;0.88;;;0.75;;
55776;SDS011;54079;44.540;18.784;2023-05-10T04:33:31;1.33;;;0.80;;
55776;SDS011;54079;44.540;18.784;2023-05-10T04:35:58;0.85;;;0.70;;
55776;SDS011;54079;44.540;18.784;2023-05-10T04:38:24;1.10;;;1.00;;
55776;SDS011;54079;44.540;18.784;2023-05-10T04:40:50;5.20;;;4.90;;
55776;SDS011;54079;44.540;18.784;2023-05-10T04:43:16;6.85;;;6.55;;
55776;SDS011;54079;44.540;18.784;2023-05-10T04:45:42;7.18;;;6.88;;
55776;SDS011;54079;44.540;18.784;2023-05-10T04:48:08;8.05;;;7.75;;
55776;SDS011;54079;44.540;18.784;2023-05-10T04:50:34;2.15;;;2.05;;
55776;SDS011;54079;44.540;18.784;2023-05-10T04:52:59;3.45;;;3.35;;
55776;SDS011;54079;44.540;18.784;2023-05-10T04:55:25;5.38;;;5.18;;
55776;SDS011;54079;44.540;18.784;2023-05-10T04:57:52;2.30;;;2.20;;
55776;SDS011;54079;44.540;18.784;2023-05-10T05:00:20;4.63;;;4.40;;
55776;SDS011;54079;44.540;18.784;2023-05-10T05:02:46;5.00;;;4.70;;
55776;SDS011;54079;44.540;18.784;2023-05-10T05:05:12;11.32;;;10.82;;
55776;SDS011;54079;44.540;18.784;2023-05-10T05:07:38;27.73;;;26.63;;
55776;SDS011;54079;44.540;18.784;2023-05-10T05:10:05;1999.90;;;999.90;;
55776;SDS011;54079;44.540;18.784;2023-05-10T05:12:32;1999.90;;;999.90;;
55776;SDS011;54079;44.540;18.784;2023-05-10T05:14:58;1999.90;;;999.90;;
55776;SDS011;54079;44.540;18.784;2023-05-10T05:17:24;1999.90;;;999.90;;
55776;SDS011;54079;44.540;18.784;2023-05-10T05:19:50;1999.90;;;999.90;;
55776;SDS011;54079;44.540;18.784;2023-05-10T05:22:16;1999.90;;;999.90;;
55776;SDS011;54079;44.540;18.784;2023-05-10T05:24:42;1999.90;;;999.90;;
55776;SDS011;54079;44.540;18.784;2023-05-10T05:27:08;1999.90;;;999.90;;
55776;SDS011;54079;44.540;18.784;2023-05-10T05:29:34;1999.90;;;999.90;;
55776;SDS011;54079;44.540;18.784;2023-05-10T05:31:59;1999.90;;;999.90;;
55776;SDS011;54079;44.540;18.784;2023-05-10T05:34:25;1999.90;;;999.90;;
55776;SDS011;54079;44.540;18.784;2023-05-10T05:36:52;1999.90;;;999.90;;
55776;SDS011;54079;44.540;18.784;2023-05-10T05:39:17;21.88;;;20.98;;
55776;SDS011;54079;44.540;18.784;2023-05-10T05:41:43;5.95;;;5.65;;
55776;SDS011;54079;44.540;18.784;2023-05-10T05:44:09;3.30;;;2.80;;
55776;SDS011;54079;44.540;18.784;2023-05-10T05:46:35;9.32;;;7.28;;
55776;SDS011;54079;44.540;18.784;2023-05-10T05:49:01;3.30;;;1.85;;
55776;SDS011;54079;44.540;18.784;2023-05-10T05:51:27;1.52;;;1.42;;
55776;SDS011;54079;44.540;18.784;2023-05-10T05:53:53;1.83;;;1.70;;
55776;SDS011;54079;44.540;18.784;2023-05-10T05:56:19;2.28;;;1.38;;
55776;SDS011;54079;44.540;18.784;2023-05-10T05:58:49;1.55;;;1.45;;
55776;SDS011;54079;44.540;18.784;2023-05-10T06:01:16;2.10;;;1.90;;
55776;SDS011;54079;44.540;18.784;2023-05-10T06:03:41;2.88;;;2.67;;
55776;SDS011;54079;44.540;18.784;2023-05-10T06:06:07;2.53;;;2.30;;
55776;SDS011;54079;44.540;18.784;2023-05-10T06:08:33;1.65;;;1.55;;
55776;SDS011;54079;44.540;18.784;2023-05-10T06:11:00;1.58;;;1.20;;
55776;SDS011;54079;44.540;18.784;2023-05-10T06:13:26;1.92;;;1.73;;
55776;SDS011;54079;44.540;18.784;2023-05-10T06:16:00;1.15;;;1.15;;
55776;SDS011;54079;44.540;18.784;2023-05-10T06:18:27;1.80;;;1.70;;
55776;SDS011;54079;44.540;18.784;2023-05-10T06:20:53;1.88;;;1.30;;
55776;SDS011;54079;44.540;18.784;2023-05-10T06:23:19;2.95;;;1.58;;
55776;SDS011;54079;44.540;18.784;2023-05-10T06:25:45;1.58;;;1.48;;
55776;SDS011;54079;44.540;18.784;2023-05-10T06:28:10;1.30;;;1.10;;
55776;SDS011;54079;44.540;18.784;2023-05-10T06:30:36;1.70;;;1.60;;
55776;SDS011;54079;44.540;18.784;2023-05-10T06:33:02;1.20;;;1.10;;
55776;SDS011;54079;44.540;18.784;2023-05-10T06:35:28;1.83;;;1.67;;
55776;SDS011;54079;44.540;18.784;2023-05-10T06:37:54;1.60;;;1.50;;
55776;SDS011;54079;44.540;18.784;2023-05-10T06:40:20;1.67;;;1.58;;
55776;SDS011;54079;44.540;18.784;2023-05-10T06:42:47;2.28;;;2.08;;
55776;SDS011;54079;44.540;18.784;2023-05-10T06:45:13;3.70;;;3.40;;
55776;SDS011;54079;44.540;18.784;2023-05-10T06:47:40;2.40;;;2.20;;
55776;SDS011;54079;44.540;18.784;2023-05-10T06:50:09;2.15;;;1.95;;
55776;SDS011;54079;44.540;18.784;2023-05-10T06:52:38;3.60;;;3.30;;
55776;SDS011;54079;44.540;18.784;2023-05-10T06:55:04;2.17;;;1.98;;
55776;SDS011;54079;44.540;18.784;2023-05-10T06:57:31;2.40;;;2.20;;
55776;SDS011;54079;44.540;18.784;2023-05-10T06:59:57;3.10;;;2.90;;
55776;SDS011;54079;44.540;18.784;2023-05-10T07:02:24;1.95;;;1.85;;
55776;SDS011;54079;44.540;18.784;2023-05-10T07:04:49;5.68;;;3.63;;
55776;SDS011;54079;44.540;18.784;2023-05-10T07:07:16;2.10;;;1.98;;
55776;SDS011;54079;44.540;18.784;2023-05-10T07:09:43;3.50;;;2.85;;
55776;SDS011;54079;44.540;18.784;2023-05-10T07:12:09;2.47;;;2.25;;
55776;SDS011;54079;44.540;18.784;2023-05-10T07:14:35;3.38;;;3.00;;
55776;SDS011;54079;44.540;18.784;2023-05-10T07:17:00;3.05;;;2.85;;
55776;SDS011;54079;44.540;18.784;2023-05-10T07:19:26;2.20;;;2.00;;
55776;SDS011;54079;44.540;18.784;2023-05-10T07:21:54;2.13;;;2.03;;
55776;SDS011;54079;44.540;18.784;2023-05-10T07:24:20;3.47;;;3.17;;
55776;SDS011;54079;44.540;18.784;2023-05-10T07:26:46;2.88;;;2.67;;
55776;SDS011;54079;44.540;18.784;2023-05-10T07:29:12;5.55;;;5.15;;
55776;SDS011;54079;44.540;18.784;2023-05-10T07:31:38;3.95;;;3.65;;
55776;SDS011;54079;44.540;18.784;2023-05-10T07:34:04;3.35;;;3.15;;
55776;SDS011;54079;44.540;18.784;2023-05-10T07:36:30;2.35;;;2.25;;
55776;SDS011;54079;44.540;18.784;2023-05-10T07:38:55;3.65;;;3.42;;
55776;SDS011;54079;44.540;18.784;2023-05-10T07:41:22;2.97;;;2.45;;
55776;SDS011;54079;44.540;18.784;2023-05-10T07:43:48;2.33;;;2.22;;
55776;SDS011;54079;44.540;18.784;2023-05-10T07:46:14;3.40;;;3.20;;
55776;SDS011;54079;44.540;18.784;2023-05-10T07:48:40;2.40;;;2.30;;
55776;SDS011;54079;44.540;18.784;2023-05-10T07:51:06;2.35;;;2.25;;
55776;SDS011;54079;44.540;18.784;2023-05-10T07:53:34;3.47;;;3.28;;
55776;SDS011;54079;44.540;18.784;2023-05-10T07:56:19;4.43;;;4.07;;
55776;SDS011;54079;44.540;18.784;2023-05-10T07:58:46;3.28;;;3.08;;
55776;SDS011;54079;44.540;18.784;2023-05-10T08:01:12;3.72;;;3.42;;
55776;SDS011;54079;44.540;18.784;2023-05-10T08:03:38;2.70;;;2.53;;
55776;SDS011;54079;44.540;18.784;2023-05-10T08:06:04;3.83;;;3.53;;
55776;SDS011;54079;44.540;18.784;2023-05-10T08:08:30;7.03;;;6.43;;
55776;SDS011;54079;44.540;18.784;2023-05-10T08:10:56;5.15;;;4.80;;
55776;SDS011;54079;44.540;18.784;2023-05-10T08:13:22;4.18;;;3.88;;
55776;SDS011;54079;44.540;18.784;2023-05-10T08:15:48;3.35;;;3.15;;
55776;SDS011;54079;44.540;18.784;2023-05-10T08:18:14;4.25;;;3.90;;
55776;SDS011;54079;44.540;18.784;2023-05-10T08:20:39;2.95;;;2.75;;
55776;SDS011;54079;44.540;18.784;2023-05-10T08:23:05;3.35;;;3.05;;
55776;SDS011;54079;44.540;18.784;2023-05-10T08:25:31;5.03;;;4.63;;
55776;SDS011;54079;44.540;18.784;2023-05-10T08:27:57;3.55;;;3.35;;
55776;SDS011;54079;44.540;18.784;2023-05-10T08:30:23;5.50;;;5.00;;
55776;SDS011;54079;44.540;18.784;2023-05-10T08:32:49;3.80;;;3.50;;
55776;SDS011;54079;44.540;18.784;2023-05-10T08:35:16;3.10;;;2.90;;
55776;SDS011;54079;44.540;18.784;2023-05-10T08:37:42;3.03;;;2.83;;
55776;SDS011;54079;44.540;18.784;2023-05-10T08:40:08;3.28;;;3.08;;
55776;SDS011;54079;44.540;18.784;2023-05-10T08:42:36;4.25;;;3.25;;
55776;SDS011;54079;44.540;18.784;2023-05-10T08:45:08;3.28;;;2.97;;
55776;SDS011;54079;44.540;18.784;2023-05-10T08:47:36;2.50;;;2.30;;
55776;SDS011;54079;44.540;18.784;2023-05-10T08:50:04;2.00;;;1.90;;
55776;SDS011;54079;44.540;18.784;2023-05-10T08:52:31;2.10;;;2.00;;
55776;SDS011;54079;44.540;18.784;2023-05-10T08:55:02;4.75;;;3.90;;
55776;SDS011;54079;44.540;18.784;2023-05-10T08:57:28;2.20;;;1.95;;
55776;SDS011;54079;44.540;18.784;2023-05-10T08:59:54;2.75;;;2.50;;
55776;SDS011;54079;44.540;18.784;2023-05-10T09:02:20;2.90;;;2.53;;
55776;SDS011;54079;44.540;18.784;2023-05-10T09:04:48;3.03;;;2.58;;
55776;SDS011;54079;44.540;18.784;2023-05-10T09:07:14;4.22;;;3.83;;
55776;SDS011;54079;44.540;18.784;2023-05-10T09:09:40;3.65;;;3.20;;
55776;SDS011;54079;44.540;18.784;2023-05-10T09:12:07;6.40;;;3.95;;
55776;SDS011;54079;44.540;18.784;2023-05-10T09:14:36;5.18;;;3.72;;
55776;SDS011;54079;44.540;18.784;2023-05-10T09:17:02;3.78;;;3.45;;
55776;SDS011;54079;44.540;18.784;2023-05-10T09:19:29;4.53;;;2.45;;
55776;SDS011;54079;44.540;18.784;2023-05-10T09:21:56;2.65;;;2.45;;
55776;SDS011;54079;44.540;18.784;2023-05-10T09:24:25;2.95;;;2.20;;
55776;SDS011;54079;44.540;18.784;2023-05-10T09:26:52;3.50;;;2.35;;
55776;SDS011;54079;44.540;18.784;2023-05-10T09:29:18;4.03;;;3.72;;
55776;SDS011;54079;44.540;18.784;2023-05-10T09:31:47;4.72;;;3.03;;
55776;SDS011;54079;44.540;18.784;2023-05-10T09:34:20;3.75;;;2.45;;
55776;SDS011;54079;44.540;18.784;2023-05-10T09:36:54;2.47;;;2.28;;
55776;SDS011;54079;44.540;18.784;2023-05-10T09:39:31;10.90;;;3.35;;
55776;SDS011;54079;44.540;18.784;2023-05-10T09:42:05;2.50;;;2.30;;
55776;SDS011;54079;44.540;18.784;2023-05-10T09:44:32;3.10;;;2.78;;
55776;SDS011;54079;44.540;18.784;2023-05-10T09:46:59;4.00;;;3.03;;
55776;SDS011;54079;44.540;18.784;2023-05-10T09:49:26;2.92;;;2.63;;
55776;SDS011;54079;44.540;18.784;2023-05-10T09:54:31;3.00;;;2.72;;
55776;SDS011;54079;44.540;18.784;2023-05-10T09:56:57;2.55;;;2.35;;
55776;SDS011;54079;44.540;18.784;2023-05-10T09:59:26;2.67;;;2.47;;
55776;SDS011;54079;44.540;18.784;2023-05-10T10:01:55;4.88;;;2.92;;
55776;SDS011;54079;44.540;18.784;2023-05-10T10:04:22;2.92;;;2.70;;
55776;SDS011;54079;44.540;18.784;2023-05-10T10:06:57;3.90;;;3.03;;
55776;SDS011;54079;44.540;18.784;2023-05-10T10:09:25;4.25;;;3.45;;
55776;SDS011;54079;44.540;18.784;2023-05-10T10:11:51;4.82;;;2.70;;
55776;SDS011;54079;44.540;18.784;2023-05-10T10:14:18;3.38;;;3.08;;
55776;SDS011;54079;44.540;18.784;2023-05-10T10:16:44;2.50;;;2.30;;
55776;SDS011;54079;44.540;18.784;2023-05-10T10:19:10;3.30;;;2.50;;
55776;SDS011;54079;44.540;18.784;2023-05-10T10:21:37;5.10;;;4.07;;
55776;SDS011;54079;44.540;18.784;2023-05-10T10:24:03;4.45;;;3.30;;
55776;SDS011;54079;44.540;18.784;2023-05-10T10:26:31;5.25;;;3.80;;
55776;SDS011;54079;44.540;18.784;2023-05-10T10:29:04;3.60;;;2.60;;
55776;SDS011;54079;44.540;18.784;2023-05-10T10:31:41;5.72;;;2.60;;
55776;SDS011;54079;44.540;18.784;2023-05-10T10:34:27;3.47;;;3.08;;
55776;SDS011;54079;44.540;18.784;2023-05-10T10:36:55;3.58;;;3.25;;
55776;SDS011;54079;44.540;18.784;2023-05-10T10:39:21;3.38;;;3.08;;
55776;SDS011;54079;44.540;18.784;2023-05-10T10:41:52;2.65;;;2.45;;
55776;SDS011;54079;44.540;18.784;2023-05-10T10:52:27;3.75;;;2.40;;
55776;SDS011;54079;44.540;18.784;2023-05-10T10:55:01;2.50;;;2.30;;
55776;SDS011;54079;44.540;18.784;2023-05-10T10:57:32;2.60;;;2.40;;
55776;SDS011;54079;44.540;18.784;2023-05-10T11:00:25;3.55;;;2.30;;
55776;SDS011;54079;44.540;18.784;2023-05-10T11:05:42;4.18;;;3.17;;
55776;SDS011;54079;44.540;18.784;2023-05-10T11:08:20;4.15;;;2.70;;
55776;SDS011;54079;44.540;18.784;2023-05-10T11:16:27;2.53;;;2.33;;
55776;SDS011;54079;44.540;18.784;2023-05-10T11:18:54;4.07;;;3.05;;
55776;SDS011;54079;44.540;18.784;2023-05-10T11:21:33;4.70;;;3.38;;
55776;SDS011;54079;44.540;18.784;2023-05-10T11:24:12;3.42;;;3.00;;
55776;SDS011;54079;44.540;18.784;2023-05-10T11:26:40;3.00;;;2.53;;
55776;SDS011;54079;44.540;18.784;2023-05-10T11:29:06;3.35;;;2.67;;
55776;SDS011;54079;44.540;18.784;2023-05-10T11:31:32;5.10;;;3.10;;
55776;SDS011;54079;44.540;18.784;2023-05-10T11:33:58;3.15;;;2.90;;
55776;SDS011;54079;44.540;18.784;2023-05-10T11:36:29;3.10;;;2.83;;
55776;SDS011;54079;44.540;18.784;2023-05-10T11:38:58;3.08;;;2.85;;
55776;SDS011;54079;44.540;18.784;2023-05-10T11:41:25;3.78;;;2.50;;
55776;SDS011;54079;44.540;18.784;2023-05-10T11:43:54;3.03;;;2.75;;
55776;SDS011;54079;44.540;18.784;2023-05-10T11:46:21;3.15;;;2.90;;
55776;SDS011;54079;44.540;18.784;2023-05-10T11:48:50;3.00;;;2.80;;
55776;SDS011;54079;44.540;18.784;2023-05-10T11:51:23;4.72;;;2.78;;
55776;SDS011;54079;44.540;18.784;2023-05-10T11:53:54;3.40;;;3.10;;
55776;SDS011;54079;44.540;18.784;2023-05-10T11:56:21;3.13;;;2.90;;
55776;SDS011;54079;44.540;18.784;2023-05-10T11:58:55;4.10;;;2.88;;
55776;SDS011;54079;44.540;18.784;2023-05-10T12:01:23;3.58;;;2.80;;
55776;SDS011;54079;44.540;18.784;2023-05-10T12:03:50;3.15;;;2.92;;
55776;SDS011;54079;44.540;18.784;2023-05-10T12:06:20;2.50;;;2.30;;
55776;SDS011;54079;44.540;18.784;2023-05-10T12:08:47;2.90;;;2.60;;
55776;SDS011;54079;44.540;18.784;2023-05-10T12:11:17;2.90;;;2.70;;
55776;SDS011;54079;44.540;18.784;2023-05-10T12:13:44;2.92;;;2.72;;
55776;SDS011;54079;44.540;18.784;2023-05-10T12:16:21;3.63;;;3.28;;
55776;SDS011;54079;44.540;18.784;2023-05-10T12:18:49;3.10;;;2.80;;
55776;SDS011;54079;44.540;18.784;2023-05-10T12:21:16;3.17;;;2.85;;
55776;SDS011;54079;44.540;18.784;2023-05-10T12:23:45;2.35;;;2.15;;
55776;SDS011;54079;44.540;18.784;2023-05-10T12:26:21;3.17;;;2.97;;
55776;SDS011;54079;44.540;18.784;2023-05-10T12:28:49;3.75;;;3.33;;
55776;SDS011;54079;44.540;18.784;2023-05-10T12:31:15;4.80;;;3.55;;
55776;SDS011;54079;44.540;18.784;2023-05-10T12:33:44;2.92;;;2.72;;
55776;SDS011;54079;44.540;18.784;2023-05-10T12:36:13;2.88;;;2.67;;
55776;SDS011;54079;44.540;18.784;2023-05-10T12:38:45;3.25;;;2.95;;
55776;SDS011;54079;44.540;18.784;2023-05-10T12:41:16;2.50;;;2.30;;
55776;SDS011;54079;44.540;18.784;2023-05-10T12:43:43;3.22;;;2.45;;
55776;SDS011;54079;44.540;18.784;2023-05-10T12:46:11;2.75;;;2.00;;
55776;SDS011;54079;44.540;18.784;2023-05-10T12:48:39;2.58;;;2.38;;
55776;SDS011;54079;44.540;18.784;2023-05-10T12:51:06;4.03;;;2.70;;
55776;SDS011;54079;44.540;18.784;2023-05-10T12:53:34;2.78;;;2.58;;
55776;SDS011;54079;44.540;18.784;2023-05-10T12:56:01;3.60;;;3.25;;
55776;SDS011;54079;44.540;18.784;2023-05-10T12:58:27;1.95;;;1.85;;
55776;SDS011;54079;44.540;18.784;2023-05-10T13:00:53;3.45;;;2.95;;
55776;SDS011;54079;44.540;18.784;2023-05-10T13:03:21;3.22;;;2.65;;
55776;SDS011;54079;44.540;18.784;2023-05-10T13:05:48;6.15;;;2.80;;
55776;SDS011;54079;44.540;18.784;2023-05-10T13:08:14;3.50;;;2.60;;
55776;SDS011;54079;44.540;18.784;2023-05-10T13:10:40;2.92;;;2.65;;
55776;SDS011;54079;44.540;18.784;2023-05-10T13:13:06;4.00;;;2.60;;
55776;SDS011;54079;44.540;18.784;2023-05-10T13:15:33;3.88;;;2.33;;
55776;SDS011;54079;44.540;18.784;2023-05-10T13:17:59;2.75;;;2.55;;
55776;SDS011;54079;44.540;18.784;2023-05-10T13:20:25;2.47;;;2.20;;
55776;SDS011;54079;44.540;18.784;2023-05-10T13:22:52;2.58;;;2.20;;
55776;SDS011;54079;44.540;18.784;2023-05-10T13:25:18;3.17;;;2.88;;
55776;SDS011;54079;44.540;18.784;2023-05-10T13:27:44;3.08;;;2.53;;
55776;SDS011;54079;44.540;18.784;2023-05-10T13:30:10;3.10;;;2.80;;
55776;SDS011;54079;44.540;18.784;2023-05-10T13:32:37;5.00;;;2.67;;
55776;SDS011;54079;44.540;18.784;2023-05-10T13:35:03;2.72;;;2.53;;
55776;SDS011;54079;44.540;18.784;2023-05-10T13:37:30;2.42;;;2.20;;
55776;SDS011;54079;44.540;18.784;2023-05-10T13:39:57;2.20;;;2.10;;
55776;SDS011;54079;44.540;18.784;2023-05-10T13:42:23;3.40;;;3.13;;
55776;SDS011;54079;44.540;18.784;2023-05-10T13:44:52;2.50;;;2.30;;
55776;SDS011;54079;44.540;18.784;2023-05-10T13:47:18;2.65;;;2.17;;
55776;SDS011;54079;44.540;18.784;2023-05-10T13:49:44;3.05;;;2.65;;
55776;SDS011;54079;44.540;18.784;2023-05-10T13:52:09;2.40;;;1.80;;
55776;SDS011;54079;44.540;18.784;2023-05-10T13:54:36;2.72;;;2.25;;
55776;SDS011;54079;44.540;18.784;2023-05-10T13:57:03;3.20;;;2.92;;
55776;SDS011;54079;44.540;18.784;2023-05-10T13:59:29;2.25;;;2.05;;
55776;SDS011;54079;44.540;18.784;2023-05-10T14:01:59;5.47;;;2.08;;
55776;SDS011;54079;44.540;18.784;2023-05-10T14:04:29;2.30;;;2.10;;
55776;SDS011;54079;44.540;18.784;2023-05-10T14:06:55;4.43;;;2.38;;
55776;SDS011;54079;44.540;18.784;2023-05-10T14:09:21;3.40;;;1.98;;
55776;SDS011;54079;44.540;18.784;2023-05-10T14:11:47;1.92;;;1.73;;
55776;SDS011;54079;44.540;18.784;2023-05-10T14:14:13;2.08;;;1.45;;
55776;SDS011;54079;44.540;18.784;2023-05-10T14:16:42;1.73;;;1.63;;
55776;SDS011;54079;44.540;18.784;2023-05-10T14:19:09;2.15;;;1.73;;
55776;SDS011;54079;44.540;18.784;2023-05-10T14:21:36;1.95;;;1.85;;
55776;SDS011;54079;44.540;18.784;2023-05-10T14:24:02;3.08;;;1.85;;
55776;SDS011;54079;44.540;18.784;2023-05-10T14:26:28;2.63;;;2.00;;
55776;SDS011;54079;44.540;18.784;2023-05-10T14:28:54;3.55;;;2.15;;
55776;SDS011;54079;44.540;18.784;2023-05-10T14:31:20;1.60;;;1.50;;
55776;SDS011;54079;44.540;18.784;2023-05-10T14:33:48;3.03;;;1.92;;
55776;SDS011;54079;44.540;18.784;2023-05-10T14:36:14;2.13;;;1.98;;
55776;SDS011;54079;44.540;18.784;2023-05-10T14:38:40;2.90;;;2.08;;
55776;SDS011;54079;44.540;18.784;2023-05-10T14:41:06;2.15;;;1.80;;
55776;SDS011;54079;44.540;18.784;2023-05-10T14:43:32;2.65;;;1.45;;
55776;SDS011;54079;44.540;18.784;2023-05-10T14:45:58;2.40;;;2.20;;
55776;SDS011;54079;44.540;18.784;2023-05-10T14:48:24;2.25;;;1.55;;
55776;SDS011;54079;44.540;18.784;2023-05-10T14:50:50;2.47;;;1.70;;
55776;SDS011;54079;44.540;18.784;2023-05-10T14:53:17;1.52;;;1.42;;
55776;SDS011;54079;44.540;18.784;2023-05-10T14:55:43;2.97;;;2.00;;
55776;SDS011;54079;44.540;18.784;2023-05-10T14:58:09;1.70;;;1.60;;
55776;SDS011;54079;44.540;18.784;2023-05-10T15:00:35;1.88;;;1.70;;
55776;SDS011;54079;44.540;18.784;2023-05-10T15:03:01;2.00;;;1.80;;
55776;SDS011;54079;44.540;18.784;2023-05-10T15:05:28;2.45;;;1.48;;
55776;SDS011;54079;44.540;18.784;2023-05-10T15:07:54;1.52;;;1.33;;
55776;SDS011;54079;44.540;18.784;2023-05-10T15:10:20;1.50;;;1.40;;
55776;SDS011;54079;44.540;18.784;2023-05-10T15:12:46;3.10;;;2.00;;
55776;SDS011;54079;44.540;18.784;2023-05-10T15:15:12;1.85;;;1.63;;